Main page
METAR-TAF:

METAR-TAF

Airports :

Santos Dumont Airport

Rio de Janeiro, Rio de Janeiro, Brazil

latitude: 22-54S, longitude: 043-10W, elevation: 3 m

Current weather observation

The report was made 19 minutes ago, at 14:00 UTC
Wind 6 kt from the North/Northwest
Temperature 27°C
Humidity 70%
Pressure 1021 hPa
Visibility: 5000 m
haze

METAR: SBRJ 181400Z 33006KT 5000 HZ NSC 27/21 Q1021

Time: 11:19 (14:19 UTC)

Forecast

The report was made 4 hours and 47 minutes ago, at 09:32 UTC
Forecast valid from 18 at 12 UTC to 18 at 24 UTC
Wind 5 kt from the North/Northeast
Visibility: 7000 m
Becoming
from 18 at 15 UTC to 18 at 17 UTC
Wind 10 kt from the South/Southeast
Visibility 10 km or more
Few clouds at a height of 2000 ft
Becoming
from 18 at 19 UTC to 18 at 21 UTC
Wind 7 kt from the Southeast
Becoming
from 18 at 23 UTC to 18 at 24 UTC
Wind 5 kt from the Northeast

TAF: SBRJ 180932Z 1812/1824 02005KT 7000 SCT020TX30/1818Z TN21/1824Z BECMG 1815/1817 16010KT 9999 FEW020 BECMG 1819/1821 14007KT BECMG 1823/1824 04005KT RMK PFV

Weather observations and forecasts of more than 4000 airports (METAR and TAF reports).

The available stations are represented by yellow and red dots on the map.

Hover mouse over dot to see the name of the station.

Then click to see weather observations and forecasts.

To change the map : click on the green buttons with a black cross to zoom in, on the green button with a dash to zoom out, or on the green arrows for adjacent maps.


METAR-TAF: